createdAt,value
2019-02-27T00:02:50.827Z,40.65
2019-02-27T00:06:54.453Z,40.10
2019-02-27T00:10:58.108Z,46.63
2019-02-27T00:15:04.492Z,46.45
2019-02-27T00:23:09.734Z,47.67
2019-02-27T00:27:14.716Z,42.05
2019-02-27T00:31:18.530Z,49.50
2019-02-27T00:35:22.295Z,44.65
2019-02-27T00:39:25.841Z,52.83
2019-02-27T00:43:29.403Z,53.98
2019-02-27T00:47:32.966Z,73.45
2019-02-27T00:51:36.521Z,46.20
2019-02-27T00:55:40.094Z,51.50
2019-02-27T00:59:43.683Z,66.70
2019-02-27T01:03:47.248Z,67.05
2019-02-27T01:07:53.795Z,64.15
2019-02-27T01:11:56.006Z,70.40
2019-02-27T01:15:59.642Z,75.05
2019-02-27T01:20:04.094Z,73.10
2019-02-27T01:24:07.650Z,68.95
2019-02-27T01:28:11.668Z,66.72
2019-02-27T01:32:15.318Z,74.55
2019-02-27T01:36:18.903Z,71.67
2019-02-27T01:40:22.478Z,75.87
2019-02-27T01:44:26.032Z,71.92
2019-02-27T01:48:29.603Z,84.42
2019-02-27T01:52:34.113Z,82.57
2019-02-27T01:56:38.238Z,83.67
2019-02-27T02:00:41.751Z,51.50
2019-02-27T02:04:45.307Z,51.98
2019-02-27T02:08:48.907Z,75.12
2019-02-27T02:12:55.500Z,84.40
2019-02-27T02:17:02.162Z,82.70
2019-02-27T02:21:32.032Z,70.17
2019-02-27T02:26:12.809Z,60.08
2019-02-27T02:30:31.816Z,65.97
2019-02-27T02:34:44.459Z,63.10
2019-02-27T02:39:17.685Z,78.17
2019-02-27T02:43:39.979Z,72.00
2019-02-27T02:47:55.376Z,84.25
2019-02-27T02:52:13.422Z,74.50
2019-02-27T02:56:24.835Z,64.17
2019-02-27T03:00:42.607Z,77.95
2019-02-27T03:05:01.098Z,78.85
2019-02-27T03:09:30.807Z,89.32
2019-02-27T03:13:42.962Z,79.70
2019-02-27T03:18:18.424Z,84.67
2019-02-27T03:22:30.948Z,92.60
2019-02-27T03:26:55.497Z,72.53
2019-02-27T03:31:19.192Z,74.00
2019-02-27T03:35:37.557Z,76.72
2019-02-27T03:40:02.534Z,79.03
2019-02-27T03:44:25.552Z,82.00
2019-02-27T03:49:03.706Z,70.95
2019-02-27T03:53:11.223Z,88.95
2019-02-27T03:57:37.451Z,76.50
2019-02-27T04:01:46.635Z,75.03
2019-02-27T04:06:08.486Z,71.60
2019-02-27T04:10:12.057Z,84.80
2019-02-27T04:14:29.475Z,88.15
2019-02-27T04:18:31.983Z,73.40
2019-02-27T04:22:37.489Z,80.60
2019-02-27T04:26:42.008Z,77.72
2019-02-27T04:30:51.105Z,78.55
2019-02-27T04:38:54.010Z,70.95
2019-02-27T04:42:59.370Z,72.50
2019-02-27T04:47:02.714Z,71.50
2019-02-27T04:51:06.302Z,63.50
2019-02-27T04:55:09.945Z,73.70
2019-02-27T04:59:18.239Z,77.62
2019-02-27T05:07:21.523Z,69.47
2019-02-27T05:11:26.923Z,78.15
2019-02-27T05:15:30.344Z,72.72
2019-02-27T05:19:36.872Z,81.28
2019-02-27T05:23:39.134Z,66.42
2019-02-27T05:27:42.694Z,73.78
2019-02-27T05:31:46.274Z,70.90
2019-02-27T05:35:49.866Z,74.20
2019-02-27T05:39:53.455Z,78.37
2019-02-27T05:43:57.014Z,80.90
2019-02-27T05:48:00.584Z,75.97
2019-02-27T05:52:04.168Z,80.72
2019-02-27T05:56:07.755Z,90.90
2019-02-27T06:00:14.241Z,92.17
2019-02-27T06:04:18.226Z,74.53
2019-02-27T06:08:21.871Z,75.12
2019-02-27T06:12:25.451Z,70.75
2019-02-27T06:16:29.039Z,65.67
2019-02-27T06:20:32.623Z,77.87
2019-02-27T06:24:36.212Z,83.00
2019-02-27T06:28:39.775Z,83.67
2019-02-27T06:32:43.442Z,73.07
2019-02-27T06:36:46.964Z,81.28
2019-02-27T06:40:50.554Z,84.92
2019-02-27T06:44:54.098Z,73.55
2019-02-27T06:48:57.741Z,61.37
2019-02-27T06:53:01.431Z,75.92
2019-02-27T06:57:07.498Z,81.50
2019-02-27T07:01:13.114Z,83.03
2019-02-27T07:05:15.739Z,90.40
2019-02-27T07:09:19.311Z,99.13
2019-02-27T07:13:22.900Z,103.47
2019-02-27T07:17:26.501Z,102.58
2019-02-27T07:21:32.854Z,89.05
2019-02-27T07:25:35.366Z,83.78
2019-02-27T07:29:38.928Z,85.67
2019-02-27T07:33:42.623Z,76.62
2019-02-27T07:37:48.090Z,73.52
2019-02-27T07:41:51.448Z,78.72
2019-02-27T07:45:55.369Z,74.32
2019-02-27T07:49:58.955Z,77.97
2019-02-27T07:54:03.986Z,78.07
2019-02-27T07:58:07.559Z,74.33
2019-02-27T08:02:11.134Z,71.53
2019-02-27T08:06:14.763Z,64.62
2019-02-27T08:10:23.252Z,72.05
2019-02-27T08:14:26.844Z,65.40
2019-02-27T08:18:33.713Z,66.40
2019-02-27T08:22:35.705Z,63.30
2019-02-27T08:26:39.303Z,61.65
2019-02-27T08:30:42.896Z,104.17
2019-02-27T08:34:46.500Z,64.15
2019-02-27T08:38:50.100Z,67.12
2019-02-27T08:42:53.719Z,62.25
2019-02-27T08:46:57.321Z,56.98
2019-02-27T08:51:05.170Z,56.90
2019-02-27T08:55:18.415Z,55.63
2019-02-27T08:59:14.563Z,42.17
2019-02-27T09:03:20.532Z,37.83
2019-02-27T09:07:23.427Z,42.43
2019-02-27T09:11:27.031Z,40.78
2019-02-27T09:15:30.869Z,35.10
2019-02-27T09:19:34.508Z,39.67
2019-02-27T09:23:38.123Z,38.13
2019-02-27T09:27:41.971Z,36.38
2019-02-27T09:31:50.817Z,40.80
2019-02-27T09:35:50.876Z,41.40
2019-02-27T09:39:54.620Z,39.42
2019-02-27T09:43:58.586Z,37.25
2019-02-27T09:48:03.940Z,37.10
2019-02-27T09:52:07.565Z,37.55
2019-02-27T09:56:11.665Z,34.10
2019-02-27T10:00:51.641Z,31.00
2019-02-27T10:04:55.237Z,32.85
2019-02-27T10:08:59.135Z,32.95
2019-02-27T10:13:04.113Z,31.02
2019-02-27T10:17:09.150Z,35.10
2019-02-27T10:21:13.069Z,26.17
2019-02-27T10:25:16.647Z,30.80
2019-02-27T10:29:20.440Z,23.90
2019-02-27T10:33:25.791Z,22.42
2019-02-27T10:37:29.342Z,23.90
2019-02-27T10:41:32.951Z,25.30
2019-02-27T10:45:36.861Z,23.77
2019-02-27T10:49:40.448Z,22.73
2019-02-27T10:53:44.140Z,23.02
2019-02-27T10:57:48.007Z,23.52
2019-02-27T11:01:51.677Z,23.47
2019-02-27T11:05:55.626Z,26.05
2019-02-27T11:09:59.308Z,22.70
2019-02-27T11:14:02.916Z,22.83
2019-02-27T11:18:06.521Z,18.62
2019-02-27T11:22:10.126Z,19.00
2019-02-27T11:26:13.736Z,17.62
2019-02-27T11:30:21.008Z,18.12
2019-02-27T11:34:24.599Z,18.00
2019-02-27T11:38:28.184Z,15.20
2019-02-27T11:42:32.707Z,16.20
2019-02-27T11:46:38.266Z,13.98
2019-02-27T11:50:41.608Z,10.93
2019-02-27T11:54:45.221Z,11.85
2019-02-27T11:58:48.779Z,12.95
2019-02-27T12:02:52.445Z,10.48
2019-02-27T12:06:56.036Z,11.18
2019-02-27T12:10:59.631Z,8.33
2019-02-27T12:15:03.284Z,8.75
2019-02-27T12:19:08.742Z,7.15
2019-02-27T12:23:12.107Z,6.90
2019-02-27T12:27:25.750Z,6.83
2019-02-27T12:31:20.952Z,9.70
2019-02-27T12:35:26.576Z,6.17
2019-02-27T12:39:30.157Z,8.00
2019-02-27T12:43:33.735Z,7.42
2019-02-27T12:47:37.718Z,6.85
2019-02-27T12:51:42.565Z,6.53
2019-02-27T12:55:46.151Z,5.03
2019-02-27T12:59:49.730Z,6.72
2019-02-27T13:03:53.311Z,7.70
2019-02-27T13:07:56.912Z,6.12
2019-02-27T13:12:00.502Z,7.12
2019-02-27T13:16:04.151Z,5.85
2019-02-27T13:20:16.215Z,6.78
2019-02-27T13:24:19.888Z,5.90
2019-02-27T13:28:23.472Z,7.42
2019-02-27T13:32:27.581Z,8.98
2019-02-27T13:36:31.589Z,9.23
2019-02-27T13:40:38.458Z,9.50
2019-02-27T13:44:42.874Z,10.70
2019-02-27T13:48:46.481Z,10.48
2019-02-27T13:52:50.777Z,10.10
2019-02-27T13:56:54.588Z,11.63
2019-02-27T14:00:58.153Z,13.87
2019-02-27T14:05:01.757Z,15.25
2019-02-27T14:09:08.521Z,12.30
2019-02-27T14:13:12.148Z,9.85
2019-02-27T14:17:15.770Z,11.45
2019-02-27T14:21:19.355Z,9.90
2019-02-27T14:25:28.499Z,8.77
2019-02-27T14:29:30.893Z,12.78
2019-02-27T14:33:34.494Z,9.03
2019-02-27T14:37:38.072Z,7.15
2019-02-27T14:41:41.684Z,11.73
2019-02-27T14:45:45.289Z,11.88
2019-02-27T14:49:49.748Z,9.15
2019-02-27T14:53:55.825Z,15.50
2019-02-27T14:57:58.613Z,11.90
2019-02-27T15:02:02.202Z,8.78
2019-02-27T15:06:05.868Z,8.95
2019-02-27T15:10:12.585Z,9.40
2019-02-27T15:14:16.228Z,10.45
2019-02-27T15:18:22.445Z,8.90
2019-02-27T15:22:26.092Z,6.40
2019-02-27T15:26:29.800Z,10.32
2019-02-27T15:30:40.910Z,12.07
2019-02-27T15:34:57.177Z,15.98
2019-02-27T15:39:00.788Z,15.45
2019-02-27T15:43:11.023Z,18.92
2019-02-27T15:47:09.697Z,19.67
2019-02-27T15:51:18.457Z,21.42
2019-02-27T15:55:26.871Z,19.82
2019-02-27T15:59:32.393Z,22.48
2019-02-27T16:03:49.533Z,22.47
2019-02-27T16:07:53.559Z,23.12
2019-02-27T16:12:46.374Z,23.07
2019-02-27T16:16:47.792Z,24.45
2019-02-27T16:20:52.850Z,16.48
2019-02-27T16:24:58.545Z,12.50
2019-02-27T16:29:03.166Z,9.85
2019-02-27T16:33:07.359Z,11.45
2019-02-27T16:37:11.107Z,7.75
2019-02-27T16:41:16.345Z,10.08
2019-02-27T16:45:25.934Z,8.27
2019-02-27T16:49:29.580Z,14.50
2019-02-27T16:53:33.168Z,16.25
2019-02-27T16:57:36.773Z,21.68
2019-02-27T17:01:40.538Z,15.90
2019-02-27T17:05:44.160Z,20.30
2019-02-27T17:09:47.775Z,16.32
2019-02-27T17:13:51.360Z,19.10
2019-02-27T17:17:54.941Z,15.93
2019-02-27T17:21:58.764Z,15.08
2019-02-27T17:26:04.353Z,19.62
2019-02-27T17:30:14.578Z,14.50
2019-02-27T17:34:18.227Z,18.57
2019-02-27T17:38:21.780Z,16.37
2019-02-27T17:42:26.328Z,17.07
2019-02-27T17:46:29.971Z,23.40
2019-02-27T17:50:33.588Z,15.88
2019-02-27T17:54:37.175Z,16.40
2019-02-27T17:58:40.764Z,22.60
2019-02-27T18:02:44.419Z,18.92
2019-02-27T18:06:48.063Z,24.23
2019-02-27T18:10:51.673Z,22.48
2019-02-27T18:14:58.103Z,22.40
2019-02-27T18:19:01.737Z,28.55
2019-02-27T18:23:05.545Z,22.60
2019-02-27T18:27:09.176Z,25.60
2019-02-27T18:31:12.782Z,29.52
2019-02-27T18:35:17.457Z,29.05
2019-02-27T18:39:20.987Z,32.17
2019-02-27T18:43:27.229Z,25.27
2019-02-27T18:47:32.149Z,31.30
2019-02-27T18:51:35.087Z,30.50
2019-02-27T18:55:38.679Z,31.60
2019-02-27T18:59:42.727Z,31.70
2019-02-27T19:03:46.845Z,29.72
2019-02-27T19:07:53.874Z,33.55
2019-02-27T19:11:56.550Z,35.03
2019-02-27T19:16:00.821Z,25.65
2019-02-27T19:20:08.176Z,34.50
2019-02-27T19:24:12.232Z,27.73
2019-02-27T19:28:16.270Z,33.78
2019-02-27T19:32:23.120Z,25.57
2019-02-27T19:36:30.523Z,31.93
2019-02-27T19:40:32.481Z,30.95
2019-02-27T19:44:38.204Z,30.25
2019-02-27T19:48:42.470Z,34.75
2019-02-27T19:52:46.884Z,29.77
2019-02-27T19:56:51.085Z,29.35
2019-02-27T20:00:55.457Z,36.23
2019-02-27T20:04:59.858Z,34.90
2019-02-27T20:09:05.969Z,35.13
2019-02-27T20:13:10.803Z,33.48
2019-02-27T20:17:14.475Z,33.13
2019-02-27T20:21:18.670Z,30.45
2019-02-27T20:25:25.178Z,38.02
2019-02-27T20:29:29.514Z,34.25
2019-02-27T20:33:34.248Z,30.88
2019-02-27T20:37:40.230Z,28.65
2019-02-27T20:41:44.269Z,33.45
2019-02-27T20:45:47.860Z,31.65
2019-02-27T20:49:51.448Z,33.05
2019-02-27T20:53:55.420Z,28.77
2019-02-27T20:57:59.982Z,29.57
2019-02-27T21:02:03.572Z,27.45
2019-02-27T21:06:07.219Z,30.62
2019-02-27T21:10:31.492Z,26.87
2019-02-27T21:14:35.167Z,31.57
2019-02-27T21:18:38.802Z,31.02
2019-02-27T21:22:42.443Z,31.27
2019-02-27T21:26:46.031Z,34.20
2019-02-27T21:30:52.285Z,29.17
2019-02-27T21:38:59.491Z,24.63
2019-02-27T21:43:03.075Z,24.45
2019-02-27T21:47:06.663Z,23.32
2019-02-27T21:51:11.000Z,23.42
2019-02-27T21:55:15.667Z,22.23
2019-02-27T21:59:19.323Z,21.93
2019-02-27T22:03:22.844Z,22.58
2019-02-27T22:11:36.825Z,23.47
2019-02-27T22:15:40.436Z,25.85
2019-02-27T22:19:44.047Z,26.05
2019-02-27T22:23:47.629Z,25.15
2019-02-27T22:27:51.246Z,21.57
2019-02-27T22:31:54.825Z,22.80
2019-02-27T22:35:58.427Z,22.22
2019-02-27T22:40:06.567Z,25.88
2019-02-27T22:44:07.277Z,20.63
2019-02-27T22:48:10.858Z,23.18
2019-02-27T22:52:14.449Z,23.92
2019-02-27T22:56:18.047Z,24.87
2019-02-27T23:00:56.025Z,23.43
2019-02-27T23:05:01.340Z,24.87
2019-02-27T23:09:05.579Z,24.00
2019-02-27T23:13:12.647Z,21.97
2019-02-27T23:17:15.817Z,23.50
2019-02-27T23:21:19.488Z,31.23
2019-02-27T23:25:23.087Z,23.40
2019-02-27T23:29:26.683Z,27.95
2019-02-27T23:33:30.276Z,25.23
2019-02-27T23:37:33.884Z,20.65
2019-02-27T23:41:37.491Z,22.45
2019-02-27T23:45:41.391Z,26.40
2019-02-27T23:49:46.326Z,25.80
2019-02-27T23:53:49.909Z,24.05
2019-02-27T23:57:57.373Z,24.18
